Catacamas, Honduras
Current Conditions -  °F | °C
As of 5:00 PM on Friday 24 Oct 2014 (Local Time) from MHCA Reporting Station
Thunderstorm Thunderstorm  
Wind Chill: 30°   Ceiling: Unl
Heat Index: 33°   Visibility: 6mi
Dew Point: 22°   Wind: 0mph
Humidity: 62%   Direction: NA
Pressure: 29.8"   Gusts: NA
Location:  14.85°N, 85.89°W
Report Text: MHCA 242300Z 00000KT 9999 TS SCT028CB SCT250 30/22 Q1009 CB TSNNWTCU TDS
Loading
Personal Weather Stations






























Interactive Weather Map
Tropical Storm Tracking
New forecast layout! Learn more

10-Day Weather Forecast

Advertisements
Track Severe Weather on mobile